Terminal Aerodrome Forecast
Issued by NWS

Home | Current Version | Previous Version | Text Only | Print | Product List | Glossary On
Versions: 1 2 3 4 5 6 7 8 9 10 11 12 13 14 15 16 17 18
000
FTUS44 KLIX 170500
TAFMSY
TAF
KMSY 170528Z 1706/1806 02006KT P6SM FEW015 OVC220
     FM171400 34004KT P6SM SCT020 BKN050
     FM171700 04004KT P6SM VCSH SCT025 BKN070
     FM171900 18007KT P6SM VCTS SCT025CB BKN060 PROB30 1719/1723
      VRB15KT 1SM TSRA BR BKN025CB=

USA.gov is the U.S. government's official web portal to all federal, state and local government web resources and services.